createdAt,value
2022-11-12T00:01:19.203Z,269.77
2022-11-12T00:06:51.463Z,285.33
2022-11-12T00:09:37.352Z,210.90
2022-11-12T00:12:23.336Z,210.13
2022-11-12T00:15:09.899Z,230.65
2022-11-12T00:17:55.812Z,262.13
2022-11-12T00:20:41.748Z,301.35
2022-11-12T00:23:27.549Z,375.73
2022-11-12T00:26:13.635Z,316.60
2022-11-12T00:28:59.660Z,399.95
2022-11-12T00:31:45.273Z,419.38
2022-11-12T00:34:31.410Z,440.70
2022-11-12T00:37:17.303Z,320.85
2022-11-12T00:42:52.374Z,457.13
2022-11-12T00:45:38.346Z,481.58
2022-11-12T00:48:24.807Z,513.30
2022-11-12T00:51:10.988Z,559.75
2022-11-12T00:53:56.698Z,397.92
2022-11-12T00:56:42.729Z,327.45
2022-11-12T01:02:14.457Z,448.63
2022-11-12T01:07:46.214Z,245.20
2022-11-12T01:10:31.938Z,293.05
2022-11-12T01:13:17.833Z,373.40
2022-11-12T01:16:19.848Z,302.30
2022-11-12T01:19:10.600Z,258.23
2022-11-12T01:21:56.512Z,249.27
2022-11-12T01:24:42.552Z,268.33
2022-11-12T01:27:28.543Z,260.27
2022-11-12T01:30:14.565Z,270.60
2022-11-12T01:33:00.503Z,251.30
2022-11-12T01:35:46.487Z,208.75
2022-11-12T01:38:38.189Z,310.63
2022-11-12T01:41:29.981Z,236.02
2022-11-12T01:44:29.152Z,257.77
2022-11-12T01:47:31.550Z,193.52
2022-11-12T01:50:34.954Z,268.42
2022-11-12T01:53:26.673Z,283.42
2022-11-12T01:56:15.262Z,455.70
2022-11-12T01:59:14.434Z,327.77
2022-11-12T02:02:00.579Z,294.27
2022-11-12T02:04:50.601Z,294.13
2022-11-12T02:07:40.692Z,308.17
2022-11-12T02:10:28.382Z,286.67
2022-11-12T02:13:33.087Z,357.73
2022-11-12T02:16:43.063Z,262.98
2022-11-12T02:19:35.939Z,288.00
2022-11-12T02:22:24.802Z,175.27
2022-11-12T02:25:23.424Z,167.30
2022-11-12T02:28:09.440Z,168.93
2022-11-12T02:30:55.244Z,175.35
2022-11-12T02:33:41.390Z,138.38
2022-11-12T02:36:31.060Z,150.88
2022-11-12T02:39:17.665Z,181.10
2022-11-12T02:42:04.339Z,185.25
2022-11-12T02:44:53.927Z,326.98
2022-11-12T02:47:39.719Z,219.23
2022-11-12T02:50:30.642Z,267.53
2022-11-12T02:53:17.916Z,244.98
2022-11-12T02:56:09.823Z,233.00
2022-11-12T02:59:12.365Z,246.90
2022-11-12T03:01:58.492Z,149.23
2022-11-12T03:07:37.782Z,152.55
2022-11-12T03:10:30.194Z,123.82
2022-11-12T03:13:18.132Z,126.15
2022-11-12T03:16:07.788Z,164.95
2022-11-12T03:18:54.766Z,130.45
2022-11-12T03:21:41.109Z,125.97
2022-11-12T03:24:28.177Z,174.82
2022-11-12T03:27:22.271Z,204.48
2022-11-12T03:30:10.183Z,292.23
2022-11-12T03:33:13.102Z,131.23
2022-11-12T03:36:05.156Z,225.50
2022-11-12T03:38:53.944Z,189.02
2022-11-12T03:41:43.616Z,205.50
2022-11-12T03:44:29.718Z,119.72
2022-11-12T03:47:15.886Z,179.50
2022-11-12T03:50:06.584Z,177.38
2022-11-12T03:53:06.237Z,159.68
2022-11-12T03:55:52.432Z,178.27
2022-11-12T03:58:38.551Z,161.98
2022-11-12T04:01:24.940Z,183.88
2022-11-12T04:04:13.597Z,164.65
2022-11-12T04:07:28.327Z,135.55
2022-11-12T04:10:17.184Z,156.52
2022-11-12T04:13:21.645Z,282.27
2022-11-12T04:16:39.610Z,142.82
2022-11-12T04:19:44.347Z,152.30
2022-11-12T04:22:30.373Z,184.40
2022-11-12T04:25:34.992Z,204.85
2022-11-12T04:28:21.078Z,144.52
2022-11-12T04:31:10.266Z,163.85
2022-11-12T04:34:16.721Z,192.60
2022-11-12T04:37:05.771Z,202.50
2022-11-12T04:39:53.455Z,234.88
2022-11-12T04:43:03.968Z,287.25
2022-11-12T04:45:53.835Z,206.50
2022-11-12T04:48:50.013Z,191.35
2022-11-12T04:54:56.499Z,116.93
2022-11-12T04:57:57.599Z,152.57
2022-11-12T05:00:47.699Z,131.45
2022-11-12T05:03:39.059Z,159.90
2022-11-12T05:06:46.646Z,203.73
2022-11-12T05:09:36.868Z,162.23
2022-11-12T05:15:25.789Z,183.35
2022-11-12T05:18:12.355Z,187.15
2022-11-12T05:21:18.574Z,209.13
2022-11-12T05:24:05.301Z,158.35
2022-11-12T05:26:52.096Z,161.07
2022-11-12T05:29:41.470Z,210.48
2022-11-12T05:32:28.211Z,150.65
2022-11-12T05:35:14.598Z,223.65
2022-11-12T05:38:02.328Z,212.55
2022-11-12T05:40:48.809Z,218.98
2022-11-12T05:43:36.979Z,150.13
2022-11-12T05:46:25.681Z,244.82
2022-11-12T05:51:58.150Z,229.02
2022-11-12T05:54:47.199Z,175.85
2022-11-12T05:57:33.448Z,242.23
2022-11-12T06:00:19.612Z,224.20
2022-11-12T06:05:54.844Z,246.18
2022-11-12T06:08:41.473Z,239.80
2022-11-12T06:11:27.353Z,228.18
2022-11-12T06:14:16.206Z,188.57
2022-11-12T06:17:03.238Z,123.80
2022-11-12T06:19:49.739Z,183.00
2022-11-12T06:22:36.182Z,182.00
2022-11-12T06:28:10.599Z,182.55
2022-11-12T06:31:01.152Z,194.98
2022-11-12T06:33:48.241Z,143.90
2022-11-12T06:36:38.134Z,119.47
2022-11-12T06:39:25.867Z,131.95
2022-11-12T06:42:20.989Z,135.55
2022-11-12T06:45:08.110Z,113.65
2022-11-12T06:47:59.427Z,147.00
2022-11-12T06:50:45.846Z,138.82
2022-11-12T06:53:34.828Z,144.90
2022-11-12T06:56:21.128Z,150.30
2022-11-12T06:59:07.521Z,129.73
2022-11-12T07:04:40.117Z,206.75
2022-11-12T07:07:26.176Z,138.73
2022-11-12T07:10:21.610Z,154.13
2022-11-12T07:13:11.117Z,146.38
2022-11-12T07:16:00.276Z,168.95
2022-11-12T07:18:49.417Z,398.65
2022-11-12T07:21:43.785Z,201.55
2022-11-12T07:24:36.586Z,143.93
2022-11-12T07:27:30.060Z,150.35
2022-11-12T07:30:17.125Z,153.15
2022-11-12T07:33:08.369Z,176.02
2022-11-12T07:36:10.070Z,160.60
2022-11-12T07:38:56.624Z,139.13
2022-11-12T07:41:44.408Z,124.28
2022-11-12T07:44:29.946Z,113.90
2022-11-12T07:47:15.668Z,107.97
2022-11-12T07:50:01.745Z,101.07
2022-11-12T07:52:47.549Z,96.75
2022-11-12T07:55:33.911Z,96.32
2022-11-12T08:01:45.384Z,87.90
2022-11-12T08:04:34.794Z,89.43
2022-11-12T08:07:20.485Z,87.53
2022-11-12T08:10:08.524Z,79.72
2022-11-12T08:12:57.535Z,79.13
2022-11-12T08:15:45.756Z,64.75
2022-11-12T08:18:35.716Z,57.30
2022-11-12T08:24:08.054Z,49.55
2022-11-12T08:26:53.693Z,47.42
2022-11-12T08:29:39.636Z,48.78
2022-11-12T08:32:25.547Z,40.05
2022-11-12T08:38:04.102Z,44.80
2022-11-12T08:40:50.169Z,41.00
2022-11-12T08:43:38.133Z,44.47
2022-11-12T08:46:24.232Z,43.47
2022-11-12T08:49:09.912Z,37.83
2022-11-12T08:54:42.631Z,38.72
2022-11-12T08:57:28.674Z,34.05
2022-11-12T09:03:04.053Z,31.77
2022-11-12T09:05:51.754Z,32.13
2022-11-12T09:08:37.951Z,34.17
2022-11-12T09:11:23.975Z,85.68
2022-11-12T09:14:12.714Z,33.45
2022-11-12T09:17:01.235Z,74.78
2022-11-12T09:19:47.431Z,54.88
2022-11-12T09:22:33.591Z,51.50
2022-11-12T09:25:21.823Z,25.65
2022-11-12T09:28:14.738Z,22.23
2022-11-12T09:31:02.050Z,20.88
2022-11-12T09:33:48.093Z,21.95
2022-11-12T09:36:39.547Z,37.03
2022-11-12T09:39:25.783Z,35.35
2022-11-12T09:42:21.546Z,43.40
2022-11-12T09:45:50.284Z,31.95
2022-11-12T09:49:01.580Z,25.00
2022-11-12T09:52:01.561Z,20.70
2022-11-12T09:55:13.528Z,24.85
2022-11-12T09:57:59.294Z,19.50
2022-11-12T10:01:19.032Z,17.42
2022-11-12T10:04:58.507Z,18.30
2022-11-12T10:08:19.539Z,37.28
2022-11-12T10:12:06.311Z,25.30
2022-11-12T10:16:37.264Z,22.92
2022-11-12T10:19:56.160Z,43.22
2022-11-12T10:23:27.806Z,20.58
2022-11-12T10:26:20.443Z,17.50
2022-11-12T10:29:32.049Z,35.38
2022-11-12T10:32:17.867Z,26.98
2022-11-12T10:35:04.797Z,20.48
2022-11-12T10:38:04.848Z,19.02
2022-11-12T10:40:50.507Z,15.85
2022-11-12T10:43:36.302Z,20.75
2022-11-12T10:46:43.091Z,16.23
2022-11-12T10:49:28.788Z,12.52
2022-11-12T10:52:24.235Z,13.73
2022-11-12T10:55:23.832Z,17.10
2022-11-12T10:58:19.791Z,15.93
2022-11-12T11:01:17.743Z,14.60
2022-11-12T11:04:04.124Z,16.98
2022-11-12T11:07:02.733Z,12.80
2022-11-12T11:10:01.590Z,14.15
2022-11-12T11:12:47.322Z,14.70
2022-11-12T11:15:33.053Z,16.38
2022-11-12T11:21:50.578Z,12.38
2022-11-12T11:25:28.539Z,12.23
2022-11-12T11:29:17.198Z,15.80
2022-11-12T11:32:45.928Z,16.15
2022-11-12T11:36:17.027Z,17.05
2022-11-12T11:40:13.546Z,17.10
2022-11-12T11:43:45.193Z,18.83
2022-11-12T11:47:21.989Z,23.60
2022-11-12T11:50:33.708Z,19.92
2022-11-12T11:54:09.229Z,19.85
2022-11-12T11:57:07.179Z,21.10
2022-11-12T12:00:12.739Z,18.00
2022-11-12T12:03:32.913Z,15.52
2022-11-12T12:06:31.505Z,16.00
2022-11-12T12:09:56.165Z,15.52
2022-11-12T12:13:21.715Z,15.98
2022-11-12T12:16:22.224Z,16.30
2022-11-12T12:19:39.513Z,16.40
2022-11-12T12:22:53.705Z,21.10
2022-11-12T12:25:54.984Z,14.32
2022-11-12T12:29:50.567Z,14.77
2022-11-12T12:32:42.941Z,15.80
2022-11-12T12:36:15.442Z,14.73
2022-11-12T12:39:42.302Z,12.00
2022-11-12T12:42:44.542Z,13.85
2022-11-12T12:45:44.695Z,16.38
2022-11-12T12:48:34.888Z,13.68
2022-11-12T12:51:22.033Z,13.38
2022-11-12T12:54:55.676Z,15.20
2022-11-12T12:57:41.845Z,14.77
2022-11-12T13:00:34.801Z,10.88
2022-11-12T13:04:09.847Z,11.32
2022-11-12T13:06:56.010Z,13.02
2022-11-12T13:09:42.356Z,15.02
2022-11-12T13:13:30.638Z,12.43
2022-11-12T13:17:06.904Z,11.63
2022-11-12T13:19:58.316Z,14.13
2022-11-12T13:22:46.935Z,12.82
2022-11-12T13:25:33.127Z,15.50
2022-11-12T13:31:26.817Z,14.57
2022-11-12T13:34:23.303Z,13.27
2022-11-12T13:40:22.991Z,13.30
2022-11-12T13:43:41.049Z,19.60
2022-11-12T13:46:34.656Z,14.00
2022-11-12T13:49:21.052Z,10.55
2022-11-12T13:52:06.950Z,13.10
2022-11-12T13:57:59.772Z,17.48
2022-11-12T14:00:58.539Z,18.80
2022-11-12T14:03:50.929Z,18.95
2022-11-12T14:07:08.580Z,23.35
2022-11-12T14:10:41.073Z,19.25
2022-11-12T14:14:15.017Z,21.83
2022-11-12T14:17:52.607Z,24.65
2022-11-12T14:20:42.201Z,24.27
2022-11-12T14:23:28.653Z,26.13
2022-11-12T14:26:42.594Z,25.85
2022-11-12T14:29:34.100Z,27.02
2022-11-12T14:32:20.975Z,28.40
2022-11-12T14:35:40.453Z,33.38
2022-11-12T14:38:40.985Z,33.13
2022-11-12T14:41:41.660Z,33.90
2022-11-12T14:44:37.196Z,34.22
2022-11-12T14:47:24.213Z,37.88
2022-11-12T14:50:37.389Z,32.28
2022-11-12T14:53:38.642Z,31.70
2022-11-12T14:56:48.855Z,33.40
2022-11-12T14:59:36.419Z,33.08
2022-11-12T15:02:49.828Z,35.55
2022-11-12T15:06:09.523Z,33.05
2022-11-12T15:08:59.781Z,32.88
2022-11-12T15:11:48.464Z,35.08
2022-11-12T15:14:35.404Z,34.17
2022-11-12T15:17:34.727Z,34.60
2022-11-12T15:20:21.139Z,33.78
2022-11-12T15:23:20.345Z,34.38
2022-11-12T15:26:45.322Z,34.13
2022-11-12T15:29:36.065Z,37.92
2022-11-12T15:32:22.145Z,39.50
2022-11-12T15:35:26.917Z,37.90
2022-11-12T15:38:49.928Z,42.53
2022-11-12T15:41:59.272Z,41.75
2022-11-12T15:44:46.245Z,41.05
2022-11-12T15:47:32.068Z,39.17
2022-11-12T15:50:22.947Z,43.15
2022-11-12T15:53:08.956Z,45.72
2022-11-12T15:55:54.799Z,56.85
2022-11-12T16:01:26.423Z,54.42
2022-11-12T16:04:13.495Z,54.30
2022-11-12T16:07:00.513Z,60.97
2022-11-12T16:09:46.283Z,52.70
2022-11-12T16:12:32.056Z,58.17
2022-11-12T16:15:25.472Z,59.30
2022-11-12T16:18:12.067Z,53.40
2022-11-12T16:20:58.305Z,56.35
2022-11-12T16:23:44.486Z,56.22
2022-11-12T16:26:32.862Z,60.72
2022-11-12T16:29:18.515Z,62.03
2022-11-12T16:32:05.252Z,60.92
2022-11-12T16:34:55.760Z,66.57
2022-11-12T16:37:47.947Z,63.50
2022-11-12T16:40:37.511Z,64.65
2022-11-12T16:43:23.512Z,66.82
2022-11-12T16:46:41.764Z,66.68
2022-11-12T16:49:27.502Z,70.78
2022-11-12T16:52:13.140Z,68.78
2022-11-12T16:55:04.311Z,64.03
2022-11-12T16:57:50.781Z,72.80
2022-11-12T17:00:36.512Z,68.00
2022-11-12T17:03:22.153Z,68.00
2022-11-12T17:08:54.675Z,71.70
2022-11-12T17:11:40.917Z,85.63
2022-11-12T17:14:28.508Z,75.38
2022-11-12T17:17:14.711Z,80.45
2022-11-12T17:20:00.771Z,83.72
2022-11-12T17:25:32.344Z,85.22
2022-11-12T17:31:20.124Z,79.85
2022-11-12T17:34:07.214Z,81.95
2022-11-12T17:36:53.352Z,85.72
2022-11-12T17:39:39.168Z,90.78
2022-11-12T17:42:24.838Z,89.03
2022-11-12T17:45:10.629Z,94.68
2022-11-12T17:47:58.532Z,86.38
2022-11-12T17:50:44.705Z,88.57
2022-11-12T17:56:22.453Z,79.40
2022-11-12T17:59:09.078Z,79.82
2022-11-12T18:01:54.965Z,73.72
2022-11-12T18:04:41.076Z,76.78
2022-11-12T18:07:27.040Z,77.22
2022-11-12T18:10:19.347Z,69.88
2022-11-12T18:13:05.549Z,69.82
2022-11-12T18:15:51.414Z,73.70
2022-11-12T18:18:38.273Z,71.75
2022-11-12T18:21:26.544Z,75.25
2022-11-12T18:24:16.450Z,72.80
2022-11-12T18:27:02.325Z,73.93
2022-11-12T18:29:48.003Z,67.97
2022-11-12T18:32:35.371Z,72.85
2022-11-12T18:35:23.610Z,81.28
2022-11-12T18:38:18.087Z,75.28
2022-11-12T18:41:12.222Z,70.03
2022-11-12T18:43:59.393Z,70.57
2022-11-12T18:46:45.315Z,73.50
2022-11-12T18:49:34.224Z,78.90
2022-11-12T18:52:20.303Z,75.32
2022-11-12T18:57:53.282Z,74.13
2022-11-12T19:00:39.084Z,79.03
2022-11-12T19:03:25.018Z,78.47
2022-11-12T19:06:13.953Z,79.28
2022-11-12T19:09:01.373Z,76.93
2022-11-12T19:11:47.541Z,78.18
2022-11-12T19:14:33.656Z,73.72
2022-11-12T19:17:19.777Z,78.70
2022-11-12T19:20:06.912Z,82.88
2022-11-12T19:22:54.123Z,78.07
2022-11-12T19:25:39.911Z,74.72
2022-11-12T19:28:26.258Z,78.15
2022-11-12T19:31:23.165Z,84.32
2022-11-12T19:34:09.115Z,85.72
2022-11-12T19:37:11.813Z,88.20
2022-11-12T19:40:01.303Z,88.17
2022-11-12T19:42:48.052Z,83.40
2022-11-12T19:45:33.913Z,91.63
2022-11-12T19:48:19.906Z,85.53
2022-11-12T19:51:09.596Z,92.65
2022-11-12T19:53:55.428Z,92.63
2022-11-12T19:56:41.229Z,92.43
2022-11-12T19:59:27.190Z,100.32
2022-11-12T20:02:14.795Z,99.55
2022-11-12T20:05:00.905Z,95.03
2022-11-12T20:07:50.600Z,100.13
2022-11-12T20:10:36.840Z,101.75
2022-11-12T20:13:22.769Z,96.00
2022-11-12T20:18:57.542Z,97.28
2022-11-12T20:21:43.958Z,91.00
2022-11-12T20:24:30.325Z,98.60
2022-11-12T20:27:17.661Z,101.30
2022-11-12T20:30:04.830Z,97.43
2022-11-12T20:32:51.460Z,93.10
2022-11-12T20:35:37.926Z,92.07
2022-11-12T20:38:24.909Z,94.32
2022-11-12T20:41:19.328Z,89.35
2022-11-12T20:44:05.743Z,92.57
2022-11-12T20:49:37.489Z,91.07
2022-11-12T20:52:23.339Z,89.80
2022-11-12T20:55:09.439Z,92.90
2022-11-12T20:57:57.727Z,85.55
2022-11-12T21:00:43.787Z,92.90
2022-11-12T21:03:31.210Z,88.63
2022-11-12T21:06:22.269Z,89.35
2022-11-12T21:09:07.905Z,100.88
2022-11-12T21:11:53.959Z,101.47
2022-11-12T21:14:39.825Z,105.25
2022-11-12T21:17:25.779Z,102.32
2022-11-12T21:20:11.882Z,95.75
2022-11-12T21:22:57.897Z,86.55
2022-11-12T21:25:43.914Z,86.93
2022-11-12T21:28:30.199Z,85.25
2022-11-12T21:31:24.800Z,80.53
2022-11-12T21:34:14.451Z,78.95
2022-11-12T21:37:01.254Z,82.43
2022-11-12T21:39:49.185Z,79.22
2022-11-12T21:42:34.835Z,82.40
2022-11-12T21:48:06.768Z,75.40
2022-11-12T21:50:52.601Z,75.43
2022-11-12T21:53:39.995Z,69.65
2022-11-12T21:56:27.020Z,75.65
2022-11-12T21:59:13.214Z,73.15
2022-11-12T22:01:59.346Z,69.25
2022-11-12T22:04:44.971Z,75.70
2022-11-12T22:07:30.739Z,75.85
2022-11-12T22:10:17.376Z,73.03
2022-11-12T22:13:25.775Z,76.10
2022-11-12T22:16:19.629Z,67.97
2022-11-12T22:21:51.484Z,65.15
2022-11-12T22:24:37.418Z,68.65
2022-11-12T22:27:23.726Z,67.30
2022-11-12T22:30:10.678Z,69.18
2022-11-12T22:32:56.888Z,59.05
2022-11-12T22:38:37.554Z,48.83
2022-11-12T22:41:30.742Z,49.58
2022-11-12T22:44:16.861Z,50.47
2022-11-12T22:47:03.275Z,49.85
2022-11-12T22:49:49.379Z,47.67
2022-11-12T22:52:35.310Z,46.42
2022-11-12T22:55:21.827Z,48.63
2022-11-12T22:58:07.625Z,43.47
2022-11-12T23:00:53.599Z,42.90
2022-11-12T23:06:27.076Z,42.70
2022-11-12T23:09:17.234Z,42.95
2022-11-12T23:12:03.409Z,42.10
2022-11-12T23:14:51.783Z,38.22
2022-11-12T23:17:37.719Z,41.53
2022-11-12T23:20:23.770Z,44.90
2022-11-12T23:23:09.748Z,34.90
2022-11-12T23:26:01.525Z,35.83
2022-11-12T23:28:48.121Z,33.58
2022-11-12T23:31:34.333Z,34.95
2022-11-12T23:37:05.776Z,34.85
2022-11-12T23:39:51.700Z,34.95
2022-11-12T23:42:37.394Z,34.13
2022-11-12T23:45:23.591Z,35.40
2022-11-12T23:51:21.297Z,32.50
2022-11-12T23:54:07.115Z,34.47
2022-11-12T23:56:52.883Z,33.92
2022-11-12T23:59:38.683Z,31.50
